Time;durP1;ratioP1;P1;durP2;ratioP2;P2;SDS_P1;SDS_P2;PMS_P1;PMS_P2;Temp;Humidity;BMP_temperature;BMP_pressure;BME280_temperature;BME280_humidity;BME280_pressure;Samples;Min_cycle;Max_cycle;Signal;HPM_P1;HPM_P2
2023/09/12 00:01:05;;;;;;;0.10;0.10;;;;;;;;;;5101543;28;20134;-44
2023/09/12 00:03:30;;;;;;;0.03;0.03;;;;;;;;;;5116515;28;20391;-44
2023/09/12 00:05:57;;;;;;;0.10;0.10;;;;;;;;;;5116347;28;20069;-45
2023/09/12 00:08:23;;;;;;;0.10;0.10;;;;;;;;;;5097931;28;20044;-44
2023/09/12 00:11:06;;;;;;;0.10;0.10;;;;;;;;;;5076393;28;20040;-43
2023/09/12 00:13:32;;;;;;;0.10;0.10;;;;;;;;;;5075956;28;20433;-44
2023/09/12 00:15:58;;;;;;;0.10;0.10;;;;;;;;;;5076423;28;20384;-45
2023/09/12 00:18:23;;;;;;;0.10;0.10;;;;;;;;;;5076068;28;20082;-44
2023/09/12 00:20:49;;;;;;;0.10;0.10;;;;;;;;;;5078714;28;20541;-44
2023/09/12 00:23:15;;;;;;;0.10;0.10;;;;;;;;;;5079774;28;20072;-44
2023/09/12 00:25:41;;;;;;;0.20;0.20;;;;;;;;;;5079816;28;20090;-43
2023/09/12 00:28:06;;;;;;;0.10;0.10;;;;;;;;;;5086149;28;20040;-44
2023/09/12 00:30:31;;;;;;;0.10;0.10;;;;;;;;;;5099847;28;20051;-43
2023/09/12 00:32:57;;;;;;;0.10;0.10;;;;;;;;;;5100152;28;20050;-45
2023/09/12 00:35:23;;;;;;;0.10;0.10;;;;;;;;;;5099867;28;20064;-43
2023/09/12 00:37:48;;;;;;;0.10;0.10;;;;;;;;;;5094570;28;20071;-43
2023/09/12 00:40:14;;;;;;;0.10;0.10;;;;;;;;;;5091775;28;20490;-44
2023/09/12 00:42:40;;;;;;;0.10;0.10;;;;;;;;;;5099658;28;20051;-44
2023/09/12 00:45:06;;;;;;;0.10;0.10;;;;;;;;;;5099764;28;20058;-43
2023/09/12 00:47:32;;;;;;;0.10;0.10;;;;;;;;;;5099854;28;20059;-45
2023/09/12 00:49:59;;;;;;;0.13;0.13;;;;;;;;;;5099857;28;20048;-43
2023/09/12 00:52:26;;;;;;;0.17;0.17;;;;;;;;;;5085054;28;20108;-44
2023/09/12 00:54:52;;;;;;;0.10;0.10;;;;;;;;;;5079063;28;20052;-43
2023/09/12 00:57:18;;;;;;;0.15;0.15;;;;;;;;;;5097849;28;20593;-43
2023/09/12 00:59:44;;;;;;;0.10;0.10;;;;;;;;;;5100865;28;20048;-43
2023/09/12 01:02:09;;;;;;;0.30;0.13;;;;;;;;;;5119834;28;20096;-44
2023/09/12 01:04:36;;;;;;;0.10;0.10;;;;;;;;;;5119503;28;20047;-44
2023/09/12 01:07:03;;;;;;;0.10;0.10;;;;;;;;;;5119294;28;20130;-44
2023/09/12 01:09:28;;;;;;;0.10;0.10;;;;;;;;;;5082647;28;20048;-43
2023/09/12 01:11:54;;;;;;;0.10;0.10;;;;;;;;;;5078519;28;20075;-44
2023/09/12 01:14:19;;;;;;;0.20;0.20;;;;;;;;;;5079285;28;20044;-44
2023/09/12 01:16:45;;;;;;;0.10;0.10;;;;;;;;;;5079059;28;20075;-43
2023/09/12 01:19:14;;;;;;;0.10;0.10;;;;;;;;;;5093013;28;20043;-44
2023/09/12 01:21:49;;;;;;;0.10;0.10;;;;;;;;;;5120184;28;20220;-44
2023/09/12 01:24:33;;;;;;;0.10;0.10;;;;;;;;;;5119564;28;20108;-43
2023/09/12 01:27:18;;;;;;;0.10;0.10;;;;;;;;;;5119229;28;20397;-44
2023/09/12 01:29:45;;;;;;;0.10;0.10;;;;;;;;;;5063716;28;20043;-43
2023/09/12 01:32:12;;;;;;;0.17;0.17;;;;;;;;;;5078867;28;20044;-43
2023/09/12 01:34:37;;;;;;;0.10;0.10;;;;;;;;;;5079054;28;20047;-44
2023/09/12 01:37:03;;;;;;;0.17;0.17;;;;;;;;;;5083358;28;20059;-45
2023/09/12 01:39:28;;;;;;;0.10;0.10;;;;;;;;;;5098734;28;20044;-44
2023/09/12 01:41:54;;;;;;;0.10;0.10;;;;;;;;;;5098175;28;20048;-44
2023/09/12 01:44:21;;;;;;;0.10;0.10;;;;;;;;;;5084340;28;20048;-46
2023/09/12 01:46:49;;;;;;;0.10;0.10;;;;;;;;;;5078435;28;20117;-44
2023/09/12 01:49:15;;;;;;;0.10;0.10;;;;;;;;;;5094313;28;20075;-43
2023/09/12 01:51:41;;;;;;;0.10;0.10;;;;;;;;;;5106833;28;20487;-43
2023/09/12 01:54:07;;;;;;;0.10;0.10;;;;;;;;;;5118527;28;20047;-43
2023/09/12 01:56:32;;;;;;;0.10;0.10;;;;;;;;;;5118631;28;20058;-45
2023/09/12 01:58:58;;;;;;;0.10;0.10;;;;;;;;;;5099837;28;20492;-43
2023/09/12 02:01:26;;;;;;;0.10;0.10;;;;;;;;;;5098290;28;20047;-44
2023/09/12 02:03:52;;;;;;;0.10;0.10;;;;;;;;;;5098403;28;20066;-45
2023/09/12 02:06:17;;;;;;;0.10;0.10;;;;;;;;;;5097890;28;20040;-44
2023/09/12 02:08:43;;;;;;;0.10;0.10;;;;;;;;;;5098026;28;20052;-45
2023/09/12 02:11:09;;;;;;;0.10;0.10;;;;;;;;;;5098012;28;20062;-43
2023/09/12 02:13:34;;;;;;;0.10;0.10;;;;;;;;;;5097695;28;20374;-43
2023/09/12 02:16:01;;;;;;;0.10;0.10;;;;;;;;;;5097651;28;20401;-43
2023/09/12 02:18:26;;;;;;;0.10;0.10;;;;;;;;;;5096291;28;20647;-45
2023/09/12 02:20:52;;;;;;;0.17;0.13;;;;;;;;;;5077478;28;20070;-44
2023/09/12 02:23:17;;;;;;;0.10;0.10;;;;;;;;;;5077335;28;20040;-44
2023/09/12 02:25:43;;;;;;;0.10;0.10;;;;;;;;;;5077093;28;20074;-43
2023/09/12 02:28:09;;;;;;;0.20;0.20;;;;;;;;;;5083994;28;20499;-45
2023/09/12 02:30:37;;;;;;;0.10;0.10;;;;;;;;;;5097235;28;20043;-45
2023/09/12 02:33:03;;;;;;;0.20;0.20;;;;;;;;;;5098108;28;20055;-43
2023/09/12 02:35:29;;;;;;;0.10;0.10;;;;;;;;;;5098360;28;20245;-43
2023/09/12 02:37:54;;;;;;;0.10;0.10;;;;;;;;;;5097185;28;20051;-43
2023/09/12 02:40:20;;;;;;;0.10;0.10;;;;;;;;;;5097539;28;20552;-46
2023/09/12 02:42:46;;;;;;;0.10;0.10;;;;;;;;;;5096070;28;20050;-44
2023/09/12 02:45:11;;;;;;;0.10;0.10;;;;;;;;;;5097621;28;20052;-44
2023/09/12 02:47:37;;;;;;;0.10;0.10;;;;;;;;;;5095165;28;21566;-43
2023/09/12 02:50:03;;;;;;;0.10;0.10;;;;;;;;;;5076958;28;20062;-43
2023/09/12 02:52:28;;;;;;;0.10;0.10;;;;;;;;;;5077597;28;20082;-55
2023/09/12 02:54:54;;;;;;;0.10;0.10;;;;;;;;;;5077637;28;20484;-55
2023/09/12 02:57:19;;;;;;;0.10;0.10;;;;;;;;;;5077351;28;20420;-55
2023/09/12 02:59:45;;;;;;;0.10;0.10;;;;;;;;;;5098181;28;20055;-55
2023/09/12 03:02:10;;;;;;;0.20;0.20;;;;;;;;;;5098025;28;20439;-55
2023/09/12 03:04:36;;;;;;;0.10;0.10;;;;;;;;;;5098047;28;20401;-55
2023/09/12 03:07:02;;;;;;;0.10;0.10;;;;;;;;;;5097280;28;20063;-55
2023/09/12 03:09:27;;;;;;;0.10;0.10;;;;;;;;;;5079545;28;20047;-55
2023/09/12 03:11:53;;;;;;;0.10;0.10;;;;;;;;;;5076485;28;20058;-55
2023/09/12 03:14:19;;;;;;;0.10;0.10;;;;;;;;;;5076968;28;20712;-55
2023/09/12 03:16:44;;;;;;;0.10;0.10;;;;;;;;;;5076437;28;20395;-55
2023/09/12 03:19:10;;;;;;;0.10;0.10;;;;;;;;;;5089798;28;20290;-55
2023/09/12 03:21:35;;;;;;;0.10;0.10;;;;;;;;;;5117217;28;20039;-55
2023/09/12 03:24:01;;;;;;;0.10;0.10;;;;;;;;;;5117209;28;20043;-55
2023/09/12 03:26:26;;;;;;;0.10;0.10;;;;;;;;;;5116928;28;20057;-55
2023/09/12 03:28:52;;;;;;;0.10;0.10;;;;;;;;;;5090460;28;20457;-55
2023/09/12 03:31:17;;;;;;;0.10;0.10;;;;;;;;;;5076189;28;20485;-55
2023/09/12 03:33:47;;;;;;;0.10;0.10;;;;;;;;;;5076611;28;20604;-55
2023/09/12 03:36:13;;;;;;;0.10;0.10;;;;;;;;;;5076106;28;20411;-55
2023/09/12 03:38:38;;;;;;;0.10;0.10;;;;;;;;;;5076026;28;20047;-56
2023/09/12 03:41:04;;;;;;;0.10;0.10;;;;;;;;;;5084724;28;20055;-55
2023/09/12 03:43:30;;;;;;;0.15;0.15;;;;;;;;;;5089114;28;20534;-55
2023/09/12 03:45:55;;;;;;;0.10;0.10;;;;;;;;;;5091122;28;20117;-55
2023/09/12 03:48:21;;;;;;;0.10;0.10;;;;;;;;;;5087479;28;20475;-55
2023/09/12 03:50:47;;;;;;;0.10;0.10;;;;;;;;;;5077521;28;20090;-55
2023/09/12 03:53:13;;;;;;;0.10;0.10;;;;;;;;;;5117408;28;20519;-55
2023/09/12 03:55:38;;;;;;;0.10;0.10;;;;;;;;;;5118668;27;20090;-55
2023/09/12 03:58:04;;;;;;;0.10;0.10;;;;;;;;;;5106938;28;20132;-55
2023/09/12 04:00:30;;;;;;;0.10;0.10;;;;;;;;;;5094670;28;20119;-55
2023/09/12 04:02:56;;;;;;;0.25;0.25;;;;;;;;;;5099369;28;20498;-55
2023/09/12 04:05:22;;;;;;;0.10;0.10;;;;;;;;;;5099901;28;20055;-55
2023/09/12 04:07:47;;;;;;;0.10;0.10;;;;;;;;;;5095021;28;20090;-55
2023/09/12 04:10:13;;;;;;;0.10;0.10;;;;;;;;;;5079694;28;20134;-55
2023/09/12 04:12:39;;;;;;;0.10;0.10;;;;;;;;;;5079080;28;20052;-55
2023/09/12 04:15:05;;;;;;;0.10;0.10;;;;;;;;;;5079112;28;20134;-55
2023/09/12 04:17:30;;;;;;;0.10;0.10;;;;;;;;;;5078370;28;20072;-55
2023/09/12 04:19:56;;;;;;;0.10;0.10;;;;;;;;;;5078112;28;20051;-55
2023/09/12 04:22:21;;;;;;;0.10;0.10;;;;;;;;;;5078725;28;20051;-55
2023/09/12 04:24:49;;;;;;;0.47;0.20;;;;;;;;;;5078403;28;20493;-55
2023/09/12 04:27:14;;;;;;;0.10;0.10;;;;;;;;;;5077758;28;20079;-55
2023/09/12 04:29:40;;;;;;;0.10;0.10;;;;;;;;;;5098914;28;20052;-55
2023/09/12 04:32:05;;;;;;;0.10;0.10;;;;;;;;;;5098260;28;20589;-55
2023/09/12 04:34:32;;;;;;;0.10;0.10;;;;;;;;;;5098941;28;20069;-55
2023/09/12 04:36:58;;;;;;;0.10;0.10;;;;;;;;;;5098764;28;20044;-55
2023/09/12 04:39:23;;;;;;;0.10;0.10;;;;;;;;;;5098306;28;20047;-56
2023/09/12 04:41:49;;;;;;;0.10;0.10;;;;;;;;;;5099170;28;20070;-55
2023/09/12 04:44:14;;;;;;;0.10;0.10;;;;;;;;;;5100163;28;20134;-55
2023/09/12 04:46:40;;;;;;;0.10;0.10;;;;;;;;;;5098653;28;20051;-55
2023/09/12 04:49:09;;;;;;;0.10;0.10;;;;;;;;;;5081728;28;20048;-55
2023/09/12 04:51:34;;;;;;;0.47;0.17;;;;;;;;;;5085774;28;20078;-55
2023/09/12 04:54:00;;;;;;;0.10;0.10;;;;;;;;;;5090450;28;20848;-55
2023/09/12 04:56:26;;;;;;;0.10;0.10;;;;;;;;;;5086829;28;20127;-55
2023/09/12 04:58:51;;;;;;;0.10;0.10;;;;;;;;;;5097229;28;20057;-55
2023/09/12 05:01:17;;;;;;;0.10;0.10;;;;;;;;;;5094205;28;20884;-55
2023/09/12 05:03:43;;;;;;;0.10;0.10;;;;;;;;;;5098478;28;20508;-55
2023/09/12 05:06:10;;;;;;;0.10;0.10;;;;;;;;;;5095742;28;20047;-55
2023/09/12 05:08:35;;;;;;;0.10;0.10;;;;;;;;;;5097366;28;20040;-55
2023/09/12 05:11:02;;;;;;;0.10;0.10;;;;;;;;;;5098039;28;20036;-55
2023/09/12 05:13:27;;;;;;;0.10;0.10;;;;;;;;;;5086352;28;20067;-54
2023/09/12 05:15:53;;;;;;;0.10;0.10;;;;;;;;;;5097831;28;20107;-55
2023/09/12 05:18:19;;;;;;;0.17;0.17;;;;;;;;;;5098903;28;20535;-55
2023/09/12 05:20:44;;;;;;;0.10;0.10;;;;;;;;;;5086609;28;20055;-55
2023/09/12 05:23:10;;;;;;;0.10;0.10;;;;;;;;;;5086324;28;20164;-55
2023/09/12 05:25:36;;;;;;;0.10;0.10;;;;;;;;;;5096974;28;20111;-55
2023/09/12 05:28:02;;;;;;;0.10;0.10;;;;;;;;;;5084449;28;20300;-55
2023/09/12 05:30:28;;;;;;;0.20;0.20;;;;;;;;;;5090067;28;20032;-55
2023/09/12 05:32:53;;;;;;;0.10;0.10;;;;;;;;;;5092232;28;20079;-43
2023/09/12 05:35:19;;;;;;;0.10;0.10;;;;;;;;;;5095062;28;20591;-43
2023/09/12 05:37:47;;;;;;;0.10;0.10;;;;;;;;;;5081598;28;20536;-43
2023/09/12 05:40:13;;;;;;;0.17;0.13;;;;;;;;;;5080622;28;20518;-45
2023/09/12 05:42:39;;;;;;;0.10;0.10;;;;;;;;;;5083309;28;20059;-44
2023/09/12 05:45:05;;;;;;;0.25;0.25;;;;;;;;;;5086122;27;20047;-45
2023/09/12 05:47:31;;;;;;;0.20;0.20;;;;;;;;;;5082736;28;20048;-43
2023/09/12 05:49:59;;;;;;;0.20;0.20;;;;;;;;;;5082370;28;20096;-44
2023/09/12 05:52:24;;;;;;;0.22;0.20;;;;;;;;;;5082518;28;20551;-43
2023/09/12 05:54:50;;;;;;;0.10;0.10;;;;;;;;;;5083683;28;20096;-46
2023/09/12 05:57:16;;;;;;;0.10;0.10;;;;;;;;;;5079632;28;20043;-43
2023/09/12 05:59:41;;;;;;;0.10;0.10;;;;;;;;;;5075242;28;20047;-46
2023/09/12 06:02:09;;;;;;;0.10;0.10;;;;;;;;;;5072030;28;20052;-44
2023/09/12 06:04:35;;;;;;;0.10;0.10;;;;;;;;;;5074318;28;20039;-44
2023/09/12 06:07:01;;;;;;;0.10;0.10;;;;;;;;;;5069679;28;20040;-43
2023/09/12 06:09:27;;;;;;;0.10;0.10;;;;;;;;;;5067864;28;20051;-44
2023/09/12 06:11:53;;;;;;;0.10;0.10;;;;;;;;;;5077327;28;20407;-43
2023/09/12 06:14:18;;;;;;;0.30;0.30;;;;;;;;;;5085037;28;20107;-43
2023/09/12 06:16:44;;;;;;;0.10;0.10;;;;;;;;;;5077537;28;20067;-43
2023/09/12 06:19:10;;;;;;;0.10;0.10;;;;;;;;;;5074915;28;20067;-43
2023/09/12 06:21:35;;;;;;;0.10;0.10;;;;;;;;;;5090519;28;20130;-43
2023/09/12 06:24:17;;;;;;;0.10;0.10;;;;;;;;;;5075741;28;20537;-45
2023/09/12 06:26:42;;;;;;;0.10;0.10;;;;;;;;;;5081268;28;20138;-44
2023/09/12 06:29:08;;;;;;;0.10;0.10;;;;;;;;;;5075840;28;20048;-44
2023/09/12 06:31:34;;;;;;;0.10;0.10;;;;;;;;;;5084246;28;20039;-43
2023/09/12 06:33:59;;;;;;;0.10;0.10;;;;;;;;;;5090648;28;20492;-44
2023/09/12 06:36:25;;;;;;;0.10;0.10;;;;;;;;;;5072668;28;20036;-45
2023/09/12 06:38:51;;;;;;;0.10;0.10;;;;;;;;;;5090892;28;21249;-46
2023/09/12 06:41:19;;;;;;;0.20;0.20;;;;;;;;;;5068334;28;20130;-44
2023/09/12 06:43:44;;;;;;;0.10;0.10;;;;;;;;;;5082856;28;20136;-43
2023/09/12 06:46:10;;;;;;;0.10;0.10;;;;;;;;;;5075569;28;20051;-44
2023/09/12 06:48:36;;;;;;;0.30;0.30;;;;;;;;;;5075519;28;20126;-44
2023/09/12 06:51:04;;;;;;;0.10;0.10;;;;;;;;;;5075670;28;20043;-44
2023/09/12 06:53:38;;;;;;;0.10;0.10;;;;;;;;;;5079734;28;20043;-46
2023/09/12 06:56:04;;;;;;;0.20;0.20;;;;;;;;;;5080023;28;20051;-43
2023/09/12 06:58:30;;;;;;;0.10;0.10;;;;;;;;;;5072567;28;20055;-43
2023/09/12 07:00:55;;;;;;;0.10;0.10;;;;;;;;;;5065843;28;20051;-43
2023/09/12 07:03:21;;;;;;;0.10;0.10;;;;;;;;;;5069560;28;20110;-43
2023/09/12 07:05:48;;;;;;;0.80;0.40;;;;;;;;;;5061686;28;20447;-44
2023/09/12 07:08:14;;;;;;;0.10;0.10;;;;;;;;;;5054594;28;20044;-43
2023/09/12 07:10:46;;;;;;;0.10;0.10;;;;;;;;;;5065476;28;20040;-46
2023/09/12 07:13:12;;;;;;;0.10;0.10;;;;;;;;;;5063255;28;20135;-44
2023/09/12 07:15:38;;;;;;;0.10;0.10;;;;;;;;;;5062153;28;20713;-43
2023/09/12 07:18:05;;;;;;;0.10;0.10;;;;;;;;;;5067973;28;20096;-43
2023/09/12 07:20:31;;;;;;;0.10;0.10;;;;;;;;;;5074734;28;20048;-45
2023/09/12 07:22:56;;;;;;;0.10;0.10;;;;;;;;;;5078482;28;20052;-44
2023/09/12 07:25:23;;;;;;;0.10;0.10;;;;;;;;;;5079633;28;20148;-43
2023/09/12 07:27:49;;;;;;;0.10;0.10;;;;;;;;;;5073294;28;20059;-46
2023/09/12 07:30:15;;;;;;;0.10;0.10;;;;;;;;;;5072410;28;20068;-43
2023/09/12 07:32:41;;;;;;;0.10;0.10;;;;;;;;;;5072015;28;20054;-43
2023/09/12 07:35:07;;;;;;;0.10;0.10;;;;;;;;;;5089748;28;20069;-44
2023/09/12 07:37:32;;;;;;;0.10;0.10;;;;;;;;;;5073138;28;20051;-53
2023/09/12 07:39:58;;;;;;;0.13;0.13;;;;;;;;;;5082233;28;20487;-43
2023/09/12 07:42:24;;;;;;;0.10;0.10;;;;;;;;;;5083740;28;20058;-46
2023/09/12 07:44:50;;;;;;;0.10;0.10;;;;;;;;;;5080266;28;20438;-44
2023/09/12 07:47:16;;;;;;;0.10;0.10;;;;;;;;;;5073525;28;20091;-44
2023/09/12 07:49:41;;;;;;;0.10;0.10;;;;;;;;;;5076164;28;20052;-44
2023/09/12 07:52:07;;;;;;;0.10;0.10;;;;;;;;;;5084104;28;20128;-45
2023/09/12 07:54:32;;;;;;;0.10;0.10;;;;;;;;;;5083896;28;20101;-44
2023/09/12 07:56:58;;;;;;;0.10;0.10;;;;;;;;;;5059646;28;20408;-45
2023/09/12 07:59:24;;;;;;;0.10;0.10;;;;;;;;;;5076184;28;20048;-43
2023/09/12 08:01:51;;;;;;;0.10;0.10;;;;;;;;;;5072063;28;20497;-44
2023/09/12 08:04:17;;;;;;;0.10;0.10;;;;;;;;;;5067606;28;20052;-44
2023/09/12 08:06:42;;;;;;;0.10;0.10;;;;;;;;;;5072649;28;20055;-44
2023/09/12 08:09:23;;;;;;;0.10;0.10;;;;;;;;;;5067820;28;20051;-44
2023/09/12 08:11:49;;;;;;;0.10;0.10;;;;;;;;;;5066877;28;20052;-44
2023/09/12 08:14:14;;;;;;;0.10;0.10;;;;;;;;;;5073911;28;20440;-44
2023/09/12 08:16:40;;;;;;;0.10;0.10;;;;;;;;;;5062845;28;20048;-43
2023/09/12 08:19:05;;;;;;;0.10;0.10;;;;;;;;;;5074533;28;20564;-44
2023/09/12 08:21:31;;;;;;;0.10;0.10;;;;;;;;;;5073027;28;20132;-44
2023/09/12 08:23:56;;;;;;;0.13;0.13;;;;;;;;;;5066677;28;20063;-45
2023/09/12 08:26:22;;;;;;;0.15;0.15;;;;;;;;;;5068099;28;20082;-45
2023/09/12 08:28:48;;;;;;;0.10;0.10;;;;;;;;;;5069303;28;20044;-43
2023/09/12 08:31:13;;;;;;;0.10;0.10;;;;;;;;;;5068996;28;20590;-44
2023/09/12 08:33:39;;;;;;;0.10;0.10;;;;;;;;;;5056658;28;20126;-43
2023/09/12 08:36:04;;;;;;;0.10;0.10;;;;;;;;;;5059040;28;20301;-44
2023/09/12 08:38:30;;;;;;;0.10;0.10;;;;;;;;;;5064389;28;20048;-43
2023/09/12 08:40:57;;;;;;;0.10;0.10;;;;;;;;;;5063062;28;20043;-43
2023/09/12 08:43:22;;;;;;;0.10;0.10;;;;;;;;;;5074634;28;20073;-44
2023/09/12 08:45:48;;;;;;;0.10;0.10;;;;;;;;;;5076019;28;20381;-44
2023/09/12 08:48:15;;;;;;;0.10;0.10;;;;;;;;;;5082230;28;20751;-44
2023/09/12 08:50:41;;;;;;;0.10;0.10;;;;;;;;;;5087166;28;20052;-45
2023/09/12 08:53:06;;;;;;;0.10;0.10;;;;;;;;;;5080467;28;20043;-43
2023/09/12 08:55:35;;;;;;;0.10;0.10;;;;;;;;;;5081141;28;20113;-44
2023/09/12 08:58:02;;;;;;;0.10;0.10;;;;;;;;;;5077916;28;20044;-44
2023/09/12 09:00:28;;;;;;;0.10;0.10;;;;;;;;;;5084854;28;20052;-45
2023/09/12 09:02:54;;;;;;;0.10;0.10;;;;;;;;;;5077412;28;20056;-44
2023/09/12 09:05:20;;;;;;;0.10;0.10;;;;;;;;;;5082933;28;20055;-44
2023/09/12 09:07:48;;;;;;;0.10;0.10;;;;;;;;;;5080017;28;20314;-44
2023/09/12 09:10:14;;;;;;;0.10;0.10;;;;;;;;;;5083390;28;20090;-43
2023/09/12 09:12:40;;;;;;;0.10;0.10;;;;;;;;;;5084022;28;20109;-45
2023/09/12 09:15:22;;;;;;;0.10;0.10;;;;;;;;;;5086867;28;20513;-44
2023/09/12 09:17:49;;;;;;;0.10;0.10;;;;;;;;;;5082603;28;20130;-45
2023/09/12 09:20:23;;;;;;;0.10;0.10;;;;;;;;;;5075521;28;20527;-43
2023/09/12 09:23:05;;;;;;;0.10;0.10;;;;;;;;;;5079421;28;20075;-44
2023/09/12 09:25:32;;;;;;;0.10;0.10;;;;;;;;;;5075457;28;20044;-44
2023/09/12 09:27:57;;;;;;;0.22;0.22;;;;;;;;;;5078711;28;20044;-44
2023/09/12 09:30:43;;;;;;;0.10;0.10;;;;;;;;;;5077260;28;20070;-45
2023/09/12 09:33:09;;;;;;;0.13;0.13;;;;;;;;;;5062867;28;20048;-44
2023/09/12 09:35:35;;;;;;;0.10;0.10;;;;;;;;;;5060794;28;20333;-44
2023/09/12 09:38:02;;;;;;;0.10;0.10;;;;;;;;;;5074779;28;20043;-43
2023/09/12 09:40:27;;;;;;;0.10;0.10;;;;;;;;;;5059279;28;20478;-44
2023/09/12 09:42:54;;;;;;;0.10;0.10;;;;;;;;;;5068819;28;20138;-43
2023/09/12 09:45:19;;;;;;;0.10;0.10;;;;;;;;;;5072388;28;20528;-43
2023/09/12 09:47:45;;;;;;;0.10;0.10;;;;;;;;;;5062427;28;20052;-43
2023/09/12 09:50:14;;;;;;;0.10;0.10;;;;;;;;;;5073696;28;20047;-43
2023/09/12 09:52:40;;;;;;;0.10;0.10;;;;;;;;;;5071008;28;20498;-44
2023/09/12 09:55:06;;;;;;;0.10;0.10;;;;;;;;;;5072430;28;20056;-44
2023/09/12 09:57:36;;;;;;;0.10;0.10;;;;;;;;;;5073821;28;20067;-43
2023/09/12 10:00:08;;;;;;;0.20;0.20;;;;;;;;;;5082117;28;20124;-44
2023/09/12 10:02:35;;;;;;;0.10;0.10;;;;;;;;;;5082204;28;20429;-44
2023/09/12 10:05:04;;;;;;;0.10;0.10;;;;;;;;;;5085384;28;20056;-44
2023/09/12 10:07:32;;;;;;;0.10;0.10;;;;;;;;;;5076701;28;20051;-43
2023/09/12 10:09:58;;;;;;;0.10;0.10;;;;;;;;;;5080404;28;20541;-44
2023/09/12 10:12:24;;;;;;;0.10;0.10;;;;;;;;;;5084583;28;20044;-43
2023/09/12 10:14:49;;;;;;;0.10;0.10;;;;;;;;;;5082551;28;20142;-44
2023/09/12 10:17:18;;;;;;;0.10;0.10;;;;;;;;;;5079568;28;20123;-43
2023/09/12 10:19:51;;;;;;;0.10;0.10;;;;;;;;;;5073120;28;20251;-44
2023/09/12 10:22:20;;;;;;;0.20;0.20;;;;;;;;;;5076895;28;20062;-44
2023/09/12 10:24:46;;;;;;;0.10;0.10;;;;;;;;;;5075540;28;20191;-43
2023/09/12 10:27:12;;;;;;;0.10;0.10;;;;;;;;;;5076119;28;20079;-43
2023/09/12 10:29:38;;;;;;;0.10;0.10;;;;;;;;;;5076537;28;20162;-43
2023/09/12 10:32:03;;;;;;;0.10;0.10;;;;;;;;;;5082336;28;20874;-43
2023/09/12 10:34:31;;;;;;;0.10;0.10;;;;;;;;;;5077406;28;20539;-43
2023/09/12 10:36:59;;;;;;;0.10;0.10;;;;;;;;;;5068559;28;21748;-44
2023/09/12 10:39:25;;;;;;;;;;;;;;;;;;5071948;28;20830;-44
2023/09/12 10:41:51;;;;;;;0.10;0.10;;;;;;;;;;5061525;28;20056;-45
2023/09/12 10:44:17;;;;;;;0.10;0.10;;;;;;;;;;5058321;28;20108;-43
2023/09/12 10:46:44;;;;;;;0.10;0.10;;;;;;;;;;5061587;28;20173;-43
2023/09/12 10:49:10;;;;;;;0.10;0.10;;;;;;;;;;5073879;28;20044;-44
2023/09/12 10:51:40;;;;;;;0.10;0.10;;;;;;;;;;5068098;28;20228;-44
2023/09/12 10:54:07;;;;;;;0.10;0.10;;;;;;;;;;5067705;28;20088;-43
2023/09/12 10:56:33;;;;;;;0.10;0.10;;;;;;;;;;5068996;28;20054;-43
2023/09/12 11:01:37;;;;;;;0.10;0.10;;;;;;;;;;5140079;27;20205;-43
2023/09/12 11:04:27;;;;;;;0.10;0.10;;;;;;;;;;5130784;27;20050;-42
2023/09/12 11:06:52;;;;;;;0.10;0.10;;;;;;;;;;5125979;27;20064;-42
2023/09/12 11:09:21;;;;;;;0.10;0.10;;;;;;;;;;5136086;27;20085;-42
2023/09/12 11:11:48;;;;;;;0.10;0.10;;;;;;;;;;5136566;27;20046;-42
2023/09/12 11:14:15;;;;;;;0.10;0.10;;;;;;;;;;5142160;27;20135;-42
2023/09/12 11:16:40;;;;;;;0.10;0.10;;;;;;;;;;5148131;27;20046;-43
2023/09/12 11:19:26;;;;;;;0.10;0.10;;;;;;;;;;5138698;27;20887;-42
2023/09/12 11:21:52;;;;;;;0.10;0.10;;;;;;;;;;5140628;27;20406;-44
2023/09/12 11:24:18;;;;;;;0.10;0.10;;;;;;;;;;5142886;27;20062;-43
2023/09/12 11:27:00;;;;;;;0.10;0.10;;;;;;;;;;5138332;27;20501;-43
2023/09/12 11:29:41;;;;;;;0.15;0.15;;;;;;;;;;5132389;27;20642;-42
2023/09/12 11:32:07;;;;;;;0.40;0.38;;;;;;;;;;5136612;27;20042;-43
2023/09/12 11:34:37;;;;;;;0.10;0.10;;;;;;;;;;5137108;27;20203;-42
2023/09/12 11:37:04;;;;;;;0.10;0.10;;;;;;;;;;5123861;27;20539;-45
2023/09/12 11:39:32;;;;;;;0.10;0.10;;;;;;;;;;5136699;27;20042;-43
2023/09/12 11:41:58;;;;;;;;;;;;;;;;;;5136934;27;20378;-43
2023/09/12 11:44:25;;;;;;;0.10;0.10;;;;;;;;;;5126764;27;19927;-42
2023/09/12 11:46:51;;;;;;;0.10;0.10;;;;;;;;;;5106902;27;20488;-44
2023/09/12 11:49:18;;;;;;;0.10;0.10;;;;;;;;;;5125822;27;20054;-43
2023/09/12 11:51:47;;;;;;;0.10;0.10;;;;;;;;;;5133523;27;20062;-47
2023/09/12 11:54:18;;;;;;;0.10;0.10;;;;;;;;;;5137424;27;20070;-44
2023/09/12 11:56:44;;;;;;;0.10;0.10;;;;;;;;;;5133700;27;20235;-43
2023/09/12 11:59:10;;;;;;;0.10;0.10;;;;;;;;;;5136523;27;20046;-46
2023/09/12 12:01:39;;;;;;;0.10;0.10;;;;;;;;;;5137985;27;20471;-43
2023/09/12 12:04:06;;;;;;;0.43;0.10;;;;;;;;;;5136157;27;20039;-45
2023/09/12 12:06:32;;;;;;;0.10;0.10;;;;;;;;;;5138912;27;20095;-43
2023/09/12 12:08:58;;;;;;;0.10;0.10;;;;;;;;;;5138254;27;20050;-43
2023/09/12 12:11:27;;;;;;;0.10;0.10;;;;;;;;;;5134239;27;20058;-42
2023/09/12 12:13:53;;;;;;;0.55;0.10;;;;;;;;;;5131556;27;20038;-45
2023/09/12 12:16:19;;;;;;;0.10;0.10;;;;;;;;;;5129543;27;20070;-52
2023/09/12 12:18:44;;;;;;;0.10;0.10;;;;;;;;;;5135124;27;20083;-59
2023/09/12 12:21:10;;;;;;;0.10;0.10;;;;;;;;;;5131756;27;20084;-43
2023/09/12 12:23:35;;;;;;;0.10;0.10;;;;;;;;;;5128750;27;20993;-43
2023/09/12 12:26:03;;;;;;;0.10;0.10;;;;;;;;;;5125680;27;20042;-46
2023/09/12 12:28:30;;;;;;;0.10;0.10;;;;;;;;;;5118430;27;21852;-43
2023/09/12 12:30:55;;;;;;;0.10;0.10;;;;;;;;;;5125213;27;20076;-44
2023/09/12 12:33:21;;;;;;;0.28;0.10;;;;;;;;;;5124481;27;20113;-43
2023/09/12 12:36:07;;;;;;;0.10;0.10;;;;;;;;;;5105295;27;20035;-42
2023/09/12 12:38:34;;;;;;;0.10;0.10;;;;;;;;;;5129064;27;20054;-48
2023/09/12 12:41:00;;;;;;;0.10;0.10;;;;;;;;;;5124284;27;20043;-51
2023/09/12 12:43:27;;;;;;;0.43;0.43;;;;;;;;;;5123760;27;20038;-48
2023/09/12 12:45:54;;;;;;;0.10;0.10;;;;;;;;;;5119604;27;20548;-43
2023/09/12 12:48:29;;;;;;;0.10;0.10;;;;;;;;;;5124900;27;20097;-42
2023/09/12 12:50:55;;;;;;;0.52;0.45;;;;;;;;;;5123786;27;20127;-43
2023/09/12 12:53:41;;;;;;;0.10;0.10;;;;;;;;;;5125737;27;20035;-43
2023/09/12 12:56:20;;;;;;;0.10;0.10;;;;;;;;;;5111589;27;20099;-43
2023/09/12 12:58:46;;;;;;;0.32;0.25;;;;;;;;;;5126609;27;20039;-42
2023/09/12 13:01:12;;;;;;;0.20;0.20;;;;;;;;;;5129352;27;20509;-44
2023/09/12 13:03:38;;;;;;;0.10;0.10;;;;;;;;;;5133722;27;20334;-43
2023/09/12 13:06:03;;;;;;;0.10;0.10;;;;;;;;;;5128235;27;20043;-43
2023/09/12 13:08:29;;;;;;;0.10;0.10;;;;;;;;;;5122030;27;20042;-42
2023/09/12 13:10:56;;;;;;;0.13;0.13;;;;;;;;;;5123794;27;20130;-43
2023/09/12 13:13:21;;;;;;;0.10;0.10;;;;;;;;;;5122537;27;20428;-43
2023/09/12 13:15:47;;;;;;;0.10;0.10;;;;;;;;;;5121636;27;20830;-42
2023/09/12 13:18:12;;;;;;;0.10;0.10;;;;;;;;;;5125131;27;20088;-43
2023/09/12 13:20:38;;;;;;;0.10;0.10;;;;;;;;;;5118575;27;20043;-42
2023/09/12 13:23:04;;;;;;;0.20;0.20;;;;;;;;;;5127122;27;20494;-42
2023/09/12 13:25:29;;;;;;;0.10;0.10;;;;;;;;;;5120863;27;20074;-42
2023/09/12 13:27:55;;;;;;;0.10;0.10;;;;;;;;;;5125955;27;20522;-43
2023/09/12 13:30:20;;;;;;;0.10;0.10;;;;;;;;;;5126522;27;20093;-42
2023/09/12 13:32:46;;;;;;;0.20;0.20;;;;;;;;;;5124885;27;20436;-42
2023/09/12 13:35:12;;;;;;;0.50;0.50;;;;;;;;;;5126415;27;20042;-42
2023/09/12 13:37:37;;;;;;;0.10;0.10;;;;;;;;;;5127981;27;20290;-43
2023/09/12 13:40:06;;;;;;;0.10;0.10;;;;;;;;;;5131654;27;20255;-43
2023/09/12 13:42:32;;;;;;;0.10;0.10;;;;;;;;;;5127209;27;20196;-43
2023/09/12 13:44:57;;;;;;;0.10;0.10;;;;;;;;;;5129959;27;20122;-43
2023/09/12 13:47:25;;;;;;;0.10;0.10;;;;;;;;;;5128850;27;20308;-42
2023/09/12 13:49:52;;;;;;;0.10;0.10;;;;;;;;;;5125992;27;20045;-42
2023/09/12 13:52:19;;;;;;;0.10;0.10;;;;;;;;;;5125605;27;20042;-42
2023/09/12 13:54:45;;;;;;;0.10;0.10;;;;;;;;;;5131128;27;20047;-43
2023/09/12 13:57:10;;;;;;;0.10;0.10;;;;;;;;;;5125618;27;20131;-45
2023/09/12 13:59:36;;;;;;;0.10;0.10;;;;;;;;;;5123043;27;20748;-43
2023/09/12 14:02:11;;;;;;;0.10;0.10;;;;;;;;;;5123877;27;20051;-43
2023/09/12 14:04:38;;;;;;;0.10;0.10;;;;;;;;;;5134715;27;20050;-42
2023/09/12 14:07:04;;;;;;;0.22;0.20;;;;;;;;;;5129057;27;20491;-42
2023/09/12 14:09:30;;;;;;;0.10;0.10;;;;;;;;;;5119589;27;20422;-44
2023/09/12 14:11:56;;;;;;;0.10;0.10;;;;;;;;;;5124626;27;20070;-42
2023/09/12 14:14:22;;;;;;;0.10;0.10;;;;;;;;;;5130026;27;20247;-45
2023/09/12 14:16:48;;;;;;;0.17;0.17;;;;;;;;;;5126310;27;20088;-42
2023/09/12 14:19:15;;;;;;;0.10;0.10;;;;;;;;;;5135811;27;20045;-42
2023/09/12 14:21:44;;;;;;;0.10;0.10;;;;;;;;;;5132038;27;20042;-43
2023/09/12 14:24:11;;;;;;;0.10;0.10;;;;;;;;;;5137539;27;20418;-45
2023/09/12 14:26:38;;;;;;;0.10;0.10;;;;;;;;;;5138680;27;20046;-42
2023/09/12 14:29:04;;;;;;;0.10;0.10;;;;;;;;;;5121946;27;20112;-44
2023/09/12 14:31:31;;;;;;;0.10;0.10;;;;;;;;;;5118257;28;20054;-42
2023/09/12 14:33:57;;;;;;;0.20;0.20;;;;;;;;;;5117919;27;20307;-42
2023/09/12 14:36:23;;;;;;;0.10;0.10;;;;;;;;;;5117399;28;20523;-45
2023/09/12 14:38:49;;;;;;;0.10;0.10;;;;;;;;;;5117528;27;20543;-42
2023/09/12 14:41:14;;;;;;;0.10;0.10;;;;;;;;;;5129108;27;20046;-43
2023/09/12 14:43:40;;;;;;;0.10;0.10;;;;;;;;;;5148613;27;20516;-42